createdAt,value
2016-06-11T00:00:07.397Z,17.9
2016-06-11T00:00:17.386Z,17.8
2016-06-11T00:00:27.386Z,17.9
2016-06-11T00:00:37.386Z,17.9
2016-06-11T00:00:47.386Z,17.9
2016-06-11T00:00:57.354Z,17.9
2016-06-11T00:01:07.354Z,17.9
2016-06-11T00:01:17.357Z,17.9
2016-06-11T00:01:27.373Z,17.8
2016-06-11T00:01:37.357Z,17.9
2016-06-11T00:01:47.357Z,17.9
2016-06-11T00:01:57.389Z,18
2016-06-11T00:02:07.342Z,17.9
2016-06-11T00:02:17.345Z,18
2016-06-11T00:02:27.345Z,18
2016-06-11T00:02:37.345Z,18
2016-06-11T00:02:47.345Z,18.1
2016-06-11T00:02:57.360Z,18.1
2016-06-11T00:03:07.329Z,18
2016-06-11T00:03:17.332Z,18.1
2016-06-11T00:03:27.332Z,18
2016-06-11T00:03:37.332Z,18
2016-06-11T00:03:47.348Z,18.1
2016-06-11T00:03:57.317Z,18.1
2016-06-11T00:04:07.317Z,18.1
2016-06-11T00:04:17.335Z,18.1
2016-06-11T00:04:27.335Z,18.1
2016-06-11T00:04:37.304Z,18.2
2016-06-11T00:04:47.304Z,18.1
2016-06-11T00:04:57.304Z,18.1
2016-06-11T00:05:07.304Z,18.1
2016-06-11T00:05:17.323Z,18.2
2016-06-11T00:05:27.307Z,18.1
2016-06-11T00:05:37.307Z,18.2
2016-06-11T00:05:47.291Z,18.1
2016-06-11T00:05:57.291Z,18.2
2016-06-11T00:06:07.291Z,18.1
2016-06-11T00:06:17.326Z,18.2
2016-06-11T00:06:27.138Z,18.2
2016-06-11T00:06:37.279Z,18.2
2016-06-11T00:06:47.279Z,18.1
2016-06-11T00:06:57.279Z,18.2
2016-06-11T00:07:07.279Z,18.2
2016-06-11T00:07:17.283Z,18.2
2016-06-11T00:07:27.267Z,18.2
2016-06-11T00:07:37.283Z,18.2
2016-06-11T00:07:47.267Z,18.1
2016-06-11T00:07:57.267Z,18.1
2016-06-11T00:08:07.298Z,18.1
2016-06-11T00:08:17.253Z,18.1
2016-06-11T00:08:27.238Z,18.1
2016-06-11T00:08:37.253Z,18.1
2016-06-11T00:08:47.253Z,18
2016-06-11T00:08:57.253Z,18.1
2016-06-11T00:09:07.238Z,18.1
2016-06-11T00:09:17.257Z,18.1
2016-06-11T00:09:27.242Z,17.9
2016-06-11T00:09:37.242Z,17.8
2016-06-11T00:09:47.242Z,17.8
2016-06-11T00:09:57.226Z,17.8
2016-06-11T00:10:07.242Z,17.8
2016-06-11T00:10:17.228Z,17.8
2016-06-11T00:10:27.228Z,17.8
2016-06-11T00:10:37.213Z,17.9
2016-06-11T00:10:47.213Z,17.8
2016-06-11T00:10:57.228Z,17.9
2016-06-11T00:11:07.213Z,17.9
2016-06-11T00:11:17.216Z,17.9
2016-06-11T00:11:27.059Z,17.9
2016-06-11T00:11:37.216Z,17.8
2016-06-11T00:11:47.200Z,17.9
2016-06-11T00:11:57.200Z,17.8
2016-06-11T00:12:07.200Z,17.9
2016-06-11T00:12:17.220Z,17.9
2016-06-11T00:12:27.204Z,17.9
2016-06-11T00:12:37.188Z,17.9
2016-06-11T00:12:47.188Z,17.9
2016-06-11T00:12:57.173Z,17.8
2016-06-11T00:13:07.173Z,17.8
2016-06-11T00:13:17.176Z,17.7
2016-06-11T00:13:27.191Z,17.6
2016-06-11T00:13:37.191Z,17.7
2016-06-11T00:13:47.098Z,17.8
2016-06-11T00:13:57.160Z,17.8
2016-06-11T00:14:07.973Z,17.8
2016-06-11T00:14:17.522Z,17.7
2016-06-11T00:14:27.366Z,17.8
2016-06-11T00:14:37.179Z,17.6
2016-06-11T00:14:47.194Z,17.5
2016-06-11T00:14:57.804Z,17.5
2016-06-11T00:15:07.444Z,17.5
2016-06-11T00:15:17.150Z,17.6
2016-06-11T00:15:27.182Z,17.6
2016-06-11T00:15:37.150Z,17.6
2016-06-11T00:15:47.150Z,17.7
2016-06-11T00:15:57.150Z,17.7
2016-06-11T00:16:07.166Z,17.7
2016-06-11T00:16:17.137Z,17.7
2016-06-11T00:16:27.121Z,17.7
2016-06-11T00:16:37.137Z,17.7
2016-06-11T00:16:47.184Z,17.7
2016-06-11T00:16:57.121Z,17.7
2016-06-11T00:17:07.121Z,17.8
2016-06-11T00:17:17.125Z,17.6
2016-06-11T00:17:27.141Z,17.7
2016-06-11T00:17:37.125Z,17.7
2016-06-11T00:17:47.110Z,17.7
2016-06-11T00:17:57.110Z,17.5
2016-06-11T00:18:07.110Z,17.5
2016-06-11T00:18:17.097Z,17.5
2016-06-11T00:18:27.113Z,17.4
2016-06-11T00:18:37.097Z,17.3
2016-06-11T00:18:47.144Z,17.5
2016-06-11T00:18:57.097Z,17.5
2016-06-11T00:19:07.081Z,17.5
2016-06-11T00:19:17.100Z,17.6
2016-06-11T00:19:27.100Z,17.7
2016-06-11T00:19:37.084Z,17.7
2016-06-11T00:19:47.084Z,17.8
2016-06-11T00:19:57.069Z,17.7
2016-06-11T00:20:07.116Z,17.6
2016-06-11T00:20:17.072Z,17.6
2016-06-11T00:20:27.072Z,17.7
2016-06-11T00:20:37.072Z,17.7
2016-06-11T00:20:47.087Z,17.7
2016-06-11T00:20:57.056Z,17.7
2016-06-11T00:21:07.056Z,17.6
2016-06-11T00:21:17.059Z,17.7
2016-06-11T00:21:27.075Z,17.7
2016-06-11T00:21:37.059Z,17.7
2016-06-11T00:21:47.059Z,17.7
2016-06-11T00:21:56.887Z,17.7
2016-06-11T00:22:07.090Z,17.7
2016-06-11T00:22:17.047Z,17.8
2016-06-11T00:22:27.032Z,17.7
2016-06-11T00:22:37.063Z,17.7
2016-06-11T00:22:47.047Z,17.7
2016-06-11T00:22:57.032Z,17.7
2016-06-11T00:23:07.047Z,17.8
2016-06-11T00:23:17.034Z,17.8
2016-06-11T00:23:27.081Z,17.8
2016-06-11T00:23:37.049Z,17.6
2016-06-11T00:23:47.049Z,17.5
2016-06-11T00:23:57.018Z,17.3
2016-06-11T00:24:07.018Z,17.2
2016-06-11T00:24:17.006Z,17.2
2016-06-11T00:24:27.006Z,17.4
2016-06-11T00:24:37.021Z,17.2
2016-06-11T00:24:46.849Z,17.1
2016-06-11T00:24:57.006Z,17.1
2016-06-11T00:25:07.006Z,17
2016-06-11T00:25:16.994Z,17.1
2016-06-11T00:25:27.010Z,17.2
2016-06-11T00:25:36.978Z,17.3
2016-06-11T00:25:46.994Z,17.3
2016-06-11T00:25:56.994Z,17.4
2016-06-11T00:26:06.994Z,17.4
2016-06-11T00:26:16.981Z,17.5
2016-06-11T00:26:26.981Z,17.5
2016-06-11T00:26:36.981Z,17.5
2016-06-11T00:26:46.981Z,17.5
2016-06-11T00:26:56.856Z,17.4
2016-06-11T00:27:06.966Z,17.4
2016-06-11T00:27:16.969Z,17.4
2016-06-11T00:27:26.984Z,17.5
2016-06-11T00:27:36.969Z,17.5
2016-06-11T00:27:46.953Z,17.6
2016-06-11T00:27:56.984Z,17.6
2016-06-11T00:28:06.969Z,17.6
2016-06-11T00:28:16.956Z,17.6
2016-06-11T00:28:26.972Z,17.7
2016-06-11T00:28:36.815Z,17.7
2016-06-11T00:28:46.956Z,17.7
2016-06-11T00:28:57.065Z,17.7
2016-06-11T00:29:06.940Z,17.7
2016-06-11T00:29:17.240Z,17.7
2016-06-11T00:29:26.803Z,17.6
2016-06-11T00:29:37.272Z,17.8
2016-06-11T00:29:46.787Z,17.8
2016-06-11T00:29:56.928Z,17.8
2016-06-11T00:30:06.787Z,17.8
2016-06-11T00:30:16.915Z,17.8
2016-06-11T00:30:26.915Z,17.8
2016-06-11T00:30:36.915Z,17.8
2016-06-11T00:30:46.915Z,17.9
2016-06-11T00:30:56.931Z,17.8
2016-06-11T00:31:06.775Z,17.9
2016-06-11T00:31:16.903Z,17.8
2016-06-11T00:31:26.903Z,17.8
2016-06-11T00:31:36.903Z,17.8
2016-06-11T00:31:46.934Z,17.8
2016-06-11T00:31:56.903Z,17.9
2016-06-11T00:32:06.934Z,17.8
2016-06-11T00:32:16.906Z,17.8
2016-06-11T00:32:26.890Z,17.9
2016-06-11T00:32:36.874Z,17.9
2016-06-11T00:32:46.890Z,17.9
2016-06-11T00:32:56.890Z,17.9
2016-06-11T00:33:06.937Z,17.9
2016-06-11T00:33:16.877Z,17.9
2016-06-11T00:33:26.877Z,17.9
2016-06-11T00:33:36.893Z,17.9
2016-06-11T00:33:46.877Z,17.9
2016-06-11T00:33:56.862Z,17.9
2016-06-11T00:34:06.909Z,17.9
2016-06-11T00:34:16.849Z,17.9
2016-06-11T00:34:26.849Z,17.8
2016-06-11T00:34:36.849Z,17.9
2016-06-11T00:34:46.849Z,17.9
2016-06-11T00:34:56.833Z,17.9
2016-06-11T00:35:06.849Z,18
2016-06-11T00:35:16.836Z,17.9
2016-06-11T00:35:26.852Z,17.9
2016-06-11T00:35:36.836Z,17.9
2016-06-11T00:35:46.836Z,17.9
2016-06-11T00:35:56.836Z,18
2016-06-11T00:36:06.868Z,17.9
2016-06-11T00:36:16.825Z,17.9
2016-06-11T00:36:26.825Z,17.9
2016-06-11T00:36:36.715Z,17.9
2016-06-11T00:36:46.903Z,17.9
2016-06-11T00:36:56.825Z,17.9
2016-06-11T00:37:06.825Z,17.9
2016-06-11T00:37:16.842Z,17.9
2016-06-11T00:37:26.889Z,17.9
2016-06-11T00:37:36.811Z,17.9
2016-06-11T00:37:46.811Z,17.9
2016-06-11T00:37:56.811Z,17.9
2016-06-11T00:38:06.842Z,17.9
2016-06-11T00:38:16.831Z,17.9
2016-06-11T00:38:26.800Z,18
2016-06-11T00:38:36.784Z,17.9
2016-06-11T00:38:46.862Z,17.9
2016-06-11T00:38:56.800Z,17.9
2016-06-11T00:39:06.800Z,17.9
2016-06-11T00:39:16.802Z,17.9
2016-06-11T00:39:26.661Z,17.9
2016-06-11T00:39:36.770Z,18
2016-06-11T00:39:46.770Z,18
2016-06-11T00:39:56.770Z,18.1
2016-06-11T00:40:06.770Z,17.9
2016-06-11T00:40:16.759Z,18
2016-06-11T00:40:26.774Z,18
2016-06-11T00:40:36.634Z,18.1
2016-06-11T00:40:46.774Z,18.1
2016-06-11T00:40:56.759Z,18.1
2016-06-11T00:41:06.759Z,17.8
2016-06-11T00:41:16.777Z,17.6
2016-06-11T00:41:26.777Z,17.6
2016-06-11T00:41:36.762Z,17.4
2016-06-11T00:41:46.777Z,17.5
2016-06-11T00:41:56.746Z,17.3
2016-06-11T00:42:06.746Z,17.2
2016-06-11T00:42:16.733Z,17.1
2016-06-11T00:42:26.733Z,17
2016-06-11T00:42:36.718Z,17.1
2016-06-11T00:42:46.765Z,17.2
2016-06-11T00:42:56.718Z,17.2
2016-06-11T00:43:06.765Z,17.3
2016-06-11T00:43:16.736Z,17.4
2016-06-11T00:43:26.736Z,17.4
2016-06-11T00:43:36.721Z,17.3
2016-06-11T00:43:46.768Z,17.4
2016-06-11T00:43:57.455Z,17.4
2016-06-11T00:44:06.752Z,17.4
2016-06-11T00:44:17.583Z,17.5
2016-06-11T00:44:26.739Z,17.6
2016-06-11T00:44:36.708Z,17.6
2016-06-11T00:44:46.661Z,17.5
2016-06-11T00:44:56.536Z,17.6
2016-06-11T00:45:06.708Z,17.7
2016-06-11T00:45:16.680Z,17.7
2016-06-11T00:45:26.742Z,17.7
2016-06-11T00:45:36.696Z,17.7
2016-06-11T00:45:46.696Z,17.7
2016-06-11T00:45:56.680Z,17.8
2016-06-11T00:46:06.696Z,17.6
2016-06-11T00:46:16.667Z,17.8
2016-06-11T00:46:26.667Z,17.8
2016-06-11T00:46:36.699Z,17.9
2016-06-11T00:46:46.714Z,17.9
2016-06-11T00:46:56.652Z,17.8
2016-06-11T00:47:06.745Z,17.7
2016-06-11T00:47:16.671Z,17.7
2016-06-11T00:47:26.671Z,17.7
2016-06-11T00:47:36.671Z,17.7
2016-06-11T00:47:46.687Z,17.7
2016-06-11T00:47:56.640Z,17.7
2016-06-11T00:48:06.656Z,17.7
2016-06-11T00:48:16.642Z,17.7
2016-06-11T00:48:26.720Z,17.6
2016-06-11T00:48:36.626Z,17.7
2016-06-11T00:48:46.673Z,17.9
2016-06-11T00:48:56.626Z,17.8
2016-06-11T00:49:06.658Z,17.8
2016-06-11T00:49:16.629Z,17.9
2016-06-11T00:49:26.661Z,17.8
2016-06-11T00:49:36.489Z,17.9
2016-06-11T00:49:46.661Z,17.8
2016-06-11T00:49:56.614Z,17.9
2016-06-11T00:50:06.661Z,18
2016-06-11T00:50:16.618Z,17.9
2016-06-11T00:50:26.618Z,18
2016-06-11T00:50:36.618Z,17.9
2016-06-11T00:50:46.477Z,18
2016-06-11T00:50:56.587Z,17.9
2016-06-11T00:51:06.446Z,17.9
2016-06-11T00:51:16.621Z,17.9
2016-06-11T00:51:26.621Z,17.9
2016-06-11T00:51:36.590Z,17.8
2016-06-11T00:51:46.652Z,17.7
2016-06-11T00:51:56.590Z,17.6
2016-06-11T00:52:06.605Z,17.7
2016-06-11T00:52:16.576Z,17.5
2016-06-11T00:52:26.654Z,17.4
2016-06-11T00:52:36.576Z,17.4
2016-06-11T00:52:46.592Z,17.3
2016-06-11T00:52:56.560Z,17.1
2016-06-11T00:53:06.592Z,17.2
2016-06-11T00:53:16.564Z,17.1
2016-06-11T00:53:26.580Z,17.2
2016-06-11T00:53:36.564Z,17.1
2016-06-11T00:53:46.564Z,17.2
2016-06-11T00:53:56.549Z,17
2016-06-11T00:54:06.549Z,17
2016-06-11T00:54:16.567Z,17
2016-06-11T00:54:26.614Z,17
2016-06-11T00:54:36.552Z,17
2016-06-11T00:54:46.411Z,17
2016-06-11T00:54:56.552Z,17
2016-06-11T00:55:06.536Z,17
2016-06-11T00:55:16.555Z,17
2016-06-11T00:55:26.570Z,17
2016-06-11T00:55:36.539Z,17.1
2016-06-11T00:55:46.539Z,16.9
2016-06-11T00:55:56.367Z,16.9
2016-06-11T00:56:06.508Z,16.9
2016-06-11T00:56:16.526Z,17
2016-06-11T00:56:26.573Z,17
2016-06-11T00:56:36.511Z,17
2016-06-11T00:56:46.542Z,17.1
2016-06-11T00:56:56.495Z,17.1
2016-06-11T00:57:06.511Z,17.1
2016-06-11T00:57:16.497Z,16.9
2016-06-11T00:57:26.513Z,16.9
2016-06-11T00:57:36.513Z,17
2016-06-11T00:57:46.497Z,17.1
2016-06-11T00:57:56.497Z,17.1
2016-06-11T00:58:06.513Z,17.1
2016-06-11T00:58:16.486Z,17.1
2016-06-11T00:58:26.532Z,17.2
2016-06-11T00:58:36.501Z,17.2
2016-06-11T00:58:46.798Z,17.2
2016-06-11T00:58:57.236Z,17.2
2016-06-11T00:59:06.345Z,17.3
2016-06-11T00:59:17.223Z,17.1
2016-06-11T00:59:26.801Z,17.1
2016-06-11T00:59:36.473Z,17.2
2016-06-11T00:59:47.004Z,17.2
2016-06-11T00:59:56.457Z,17.3
2016-06-11T01:00:06.535Z,17.3
2016-06-11T01:00:16.460Z,17.3
2016-06-11T01:00:26.476Z,17.2
2016-06-11T01:00:36.445Z,17.1
2016-06-11T01:00:46.460Z,17
2016-06-11T01:00:56.445Z,17
2016-06-11T01:01:06.523Z,17
2016-06-11T01:01:16.432Z,17
2016-06-11T01:01:26.479Z,17
2016-06-11T01:01:36.432Z,17
2016-06-11T01:01:46.495Z,17
2016-06-11T01:01:56.432Z,17
2016-06-11T01:02:06.432Z,17
2016-06-11T01:02:16.435Z,17.1
2016-06-11T01:02:26.341Z,17.1
2016-06-11T01:02:36.419Z,17.2
2016-06-11T01:02:46.435Z,17.2
2016-06-11T01:02:56.419Z,17.3
2016-06-11T01:03:06.435Z,17.1
2016-06-11T01:03:16.438Z,17.1
2016-06-11T01:03:26.407Z,17
2016-06-11T01:03:36.407Z,17.2
2016-06-11T01:03:46.438Z,17
2016-06-11T01:03:56.391Z,16.9
2016-06-11T01:04:06.407Z,17
2016-06-11T01:04:16.395Z,16.9
2016-06-11T01:04:26.395Z,16.8
2016-06-11T01:04:36.395Z,16.9
2016-06-11T01:04:46.395Z,17
2016-06-11T01:04:56.395Z,17
2016-06-11T01:05:06.395Z,17.1
2016-06-11T01:05:16.382Z,17.2
2016-06-11T01:05:26.382Z,17.1
2016-06-11T01:05:36.382Z,17.2
2016-06-11T01:05:46.428Z,17.1
2016-06-11T01:05:56.210Z,17.1
2016-06-11T01:06:06.366Z,17
2016-06-11T01:06:16.370Z,17
2016-06-11T01:06:26.354Z,17
2016-06-11T01:06:36.448Z,17
2016-06-11T01:06:46.354Z,17
2016-06-11T01:06:56.354Z,17
2016-06-11T01:07:06.386Z,17
2016-06-11T01:07:16.356Z,17.1
2016-06-11T01:07:26.341Z,17.1
2016-06-11T01:07:36.356Z,17.1
2016-06-11T01:07:46.356Z,17.2
2016-06-11T01:07:56.184Z,17.1
2016-06-11T01:08:06.325Z,17.2
2016-06-11T01:08:16.329Z,17.1
2016-06-11T01:08:26.345Z,17.1
2016-06-11T01:08:36.407Z,17.3
2016-06-11T01:08:46.329Z,17.2
2016-06-11T01:08:56.313Z,17.2
2016-06-11T01:09:06.329Z,17.4
2016-06-11T01:09:16.332Z,17.5
2016-06-11T01:09:26.316Z,17.4
2016-06-11T01:09:36.316Z,17.5
2016-06-11T01:09:46.176Z,17.4
2016-06-11T01:09:56.395Z,17.2
2016-06-11T01:10:06.348Z,17.3
2016-06-11T01:10:16.304Z,17.3
2016-06-11T01:10:26.148Z,17.4
2016-06-11T01:10:36.335Z,17.4
2016-06-11T01:10:46.351Z,17.3
2016-06-11T01:10:56.288Z,17.4
2016-06-11T01:11:06.304Z,17.2
2016-06-11T01:11:16.307Z,17.4
2016-06-11T01:11:26.135Z,17.3
2016-06-11T01:11:36.322Z,17.4
2016-06-11T01:11:46.291Z,17.4
2016-06-11T01:11:56.276Z,17.4
2016-06-11T01:12:06.276Z,17.5
2016-06-11T01:12:16.263Z,17.4
2016-06-11T01:12:26.294Z,17.5
2016-06-11T01:12:36.372Z,17.5
2016-06-11T01:12:46.263Z,17.6
2016-06-11T01:12:56.263Z,17.5
2016-06-11T01:13:06.294Z,17.5
2016-06-11T01:13:16.266Z,17.5
2016-06-11T01:13:26.266Z,17.4
2016-06-11T01:13:36.250Z,17.6
2016-06-11T01:13:46.282Z,17.5
2016-06-11T01:13:56.688Z,17.6
2016-06-11T01:14:06.813Z,17.6
2016-06-11T01:14:16.128Z,17.6
2016-06-11T01:14:26.394Z,17.7
2016-06-11T01:14:36.706Z,17.6
2016-06-11T01:14:47.628Z,17.6
2016-06-11T01:14:56.722Z,17.5
2016-06-11T01:15:06.644Z,17.6
2016-06-11T01:15:16.256Z,17.6
2016-06-11T01:15:26.225Z,17.6
2016-06-11T01:15:36.209Z,17.6
2016-06-11T01:15:46.241Z,17.6
2016-06-11T01:15:56.225Z,17.6
2016-06-11T01:16:06.209Z,17.6
2016-06-11T01:16:16.212Z,17.6
2016-06-11T01:16:26.212Z,17.6
2016-06-11T01:16:36.212Z,17.6
2016-06-11T01:16:46.244Z,17.4
2016-06-11T01:16:56.197Z,17.1
2016-06-11T01:17:06.056Z,17
2016-06-11T01:17:16.185Z,17
2016-06-11T01:17:26.201Z,17
2016-06-11T01:17:36.185Z,16.9
2016-06-11T01:17:46.201Z,16.9
2016-06-11T01:17:56.185Z,16.9
2016-06-11T01:18:06.201Z,16.9
2016-06-11T01:18:16.188Z,17
2016-06-11T01:18:26.188Z,17
2016-06-11T01:18:36.173Z,17
2016-06-11T01:18:46.173Z,17.1
2016-06-11T01:18:56.173Z,17.1
2016-06-11T01:19:06.173Z,17.1
2016-06-11T01:19:16.018Z,17.2
2016-06-11T01:19:26.159Z,17.3
2016-06-11T01:19:36.159Z,17.2
2016-06-11T01:19:46.175Z,17.1
2016-06-11T01:19:56.159Z,17
2016-06-11T01:20:06.143Z,17
2016-06-11T01:20:16.147Z,17.1
2016-06-11T01:20:26.147Z,17
2016-06-11T01:20:36.007Z,17
2016-06-11T01:20:46.163Z,17
2016-06-11T01:20:56.147Z,16.8
2016-06-11T01:21:06.132Z,16.9
2016-06-11T01:21:16.135Z,17
2016-06-11T01:21:26.119Z,17
2016-06-11T01:21:36.416Z,17
2016-06-11T01:21:46.150Z,17.1
2016-06-11T01:21:56.119Z,17
2016-06-11T01:22:06.135Z,17.2
2016-06-11T01:22:16.121Z,17.2
2016-06-11T01:22:26.121Z,17.2
2016-06-11T01:22:36.121Z,17.2
2016-06-11T01:22:46.105Z,17.3
2016-06-11T01:22:56.105Z,17.3
2016-06-11T01:23:06.121Z,17.3
2016-06-11T01:23:16.094Z,17.3
2016-06-11T01:23:26.094Z,17.3
2016-06-11T01:23:36.094Z,17.4
2016-06-11T01:23:46.078Z,17.5
2016-06-11T01:23:56.094Z,17.5
2016-06-11T01:24:06.109Z,17.5
2016-06-11T01:24:16.377Z,17.4
2016-06-11T01:24:26.080Z,17.4
2016-06-11T01:24:36.096Z,17.5
2016-06-11T01:24:46.080Z,17.5
2016-06-11T01:24:56.361Z,17.5
2016-06-11T01:25:05.971Z,17.5
2016-06-11T01:25:16.084Z,17.5
2016-06-11T01:25:26.131Z,17.5
2016-06-11T01:25:36.053Z,17.5
2016-06-11T01:25:46.084Z,17.5
2016-06-11T01:25:56.053Z,17.5
2016-06-11T01:26:06.100Z,17.6
2016-06-11T01:26:16.353Z,17.6
2016-06-11T01:26:26.056Z,17.6
2016-06-11T01:26:36.040Z,17.6
2016-06-11T01:26:46.040Z,17.5
2016-06-11T01:26:56.040Z,17.5
2016-06-11T01:27:06.040Z,17.6
2016-06-11T01:27:16.043Z,17.6
2016-06-11T01:27:26.059Z,17.6
2016-06-11T01:27:36.090Z,17.6
2016-06-11T01:27:46.059Z,17.6
2016-06-11T01:27:56.028Z,17.7
2016-06-11T01:28:06.028Z,17.6
2016-06-11T01:28:16.046Z,17.6
2016-06-11T01:28:26.015Z,17.6
2016-06-11T01:28:36.015Z,17.6
2016-06-11T01:28:46.046Z,17.6
2016-06-11T01:28:56.374Z,17.7
2016-06-11T01:29:06.687Z,17.7
2016-06-11T01:29:16.549Z,17.7
2016-06-11T01:29:25.893Z,17.7
2016-06-11T01:29:36.096Z,17.7
2016-06-11T01:29:45.909Z,17.7
2016-06-11T01:29:56.018Z,17.7
2016-06-11T01:30:05.846Z,17.8
2016-06-11T01:30:16.038Z,17.7
2016-06-11T01:30:25.991Z,17.7
2016-06-11T01:30:35.991Z,17.7
2016-06-11T01:30:45.991Z,17.7
2016-06-11T01:30:55.975Z,17.7
2016-06-11T01:31:05.975Z,17.8
2016-06-11T01:31:15.977Z,17.8
2016-06-11T01:31:25.962Z,17.7
2016-06-11T01:31:35.993Z,17.7
2016-06-11T01:31:45.977Z,17.7
2016-06-11T01:31:55.977Z,17.7
2016-06-11T01:32:05.962Z,17.7
2016-06-11T01:32:15.950Z,17.8
2016-06-11T01:32:25.966Z,17.8
2016-06-11T01:32:35.966Z,17.7
2016-06-11T01:32:45.950Z,17.7
2016-06-11T01:32:55.950Z,17.7
2016-06-11T01:33:05.966Z,17.7
2016-06-11T01:33:15.952Z,17.7
2016-06-11T01:33:25.968Z,17.6
2016-06-11T01:33:35.968Z,17.7
2016-06-11T01:33:45.936Z,17.7
2016-06-11T01:33:55.952Z,17.7
2016-06-11T01:34:05.921Z,17.6
2016-06-11T01:34:15.924Z,17.8
2016-06-11T01:34:25.955Z,17.6
2016-06-11T01:34:35.924Z,17.7
2016-06-11T01:34:45.939Z,17.7
2016-06-11T01:34:55.955Z,17.8
2016-06-11T01:35:05.924Z,17.8
2016-06-11T01:35:15.912Z,17.7
2016-06-11T01:35:25.912Z,17.8
2016-06-11T01:35:35.928Z,17.7
2016-06-11T01:35:45.912Z,17.7
2016-06-11T01:35:55.912Z,17.7
2016-06-11T01:36:05.896Z,17.7
2016-06-11T01:36:15.899Z,17.6
2016-06-11T01:36:25.884Z,17.7
2016-06-11T01:36:35.884Z,17.6
2016-06-11T01:36:45.884Z,17.7
2016-06-11T01:36:55.915Z,17.8
2016-06-11T01:37:05.868Z,17.6
2016-06-11T01:37:15.887Z,17.7
2016-06-11T01:37:25.871Z,17.6
2016-06-11T01:37:35.981Z,17.6
2016-06-11T01:37:45.871Z,17.6
2016-06-11T01:37:55.871Z,17.6
2016-06-11T01:38:05.856Z,17.7
2016-06-11T01:38:15.921Z,17.6
2016-06-11T01:38:25.874Z,17.6
2016-06-11T01:38:35.859Z,17.6
2016-06-11T01:38:45.702Z,17.6
2016-06-11T01:38:55.937Z,17.6
2016-06-11T01:39:05.874Z,17.6
2016-06-11T01:39:15.862Z,17.6
2016-06-11T01:39:25.862Z,17.6
2016-06-11T01:39:35.846Z,17.6
2016-06-11T01:39:45.846Z,17.6
2016-06-11T01:39:56.127Z,17.6
2016-06-11T01:40:05.846Z,17.6
2016-06-11T01:40:15.833Z,17.6
2016-06-11T01:40:25.833Z,17.6
2016-06-11T01:40:35.833Z,17.6
2016-06-11T01:40:45.833Z,17.6
2016-06-11T01:40:55.865Z,17.6
2016-06-11T01:41:05.818Z,17.6
2016-06-11T01:41:15.837Z,17.6
2016-06-11T01:41:25.806Z,17.6
2016-06-11T01:41:35.837Z,17.6
2016-06-11T01:41:45.837Z,17.6
2016-06-11T01:41:55.806Z,17.6
2016-06-11T01:42:05.806Z,17.6
2016-06-11T01:42:15.808Z,17.6
2016-06-11T01:42:25.808Z,17.6
2016-06-11T01:42:35.792Z,17.6
2016-06-11T01:42:45.824Z,17.6
2016-06-11T01:42:55.792Z,17.6
2016-06-11T01:43:05.777Z,17.6
2016-06-11T01:43:16.092Z,17.5
2016-06-11T01:43:25.780Z,17.6
2016-06-11T01:43:35.811Z,17.5
2016-06-11T01:43:45.780Z,17.5
2016-06-11T01:43:56.061Z,17.5
2016-06-11T01:44:05.827Z,17.5
2016-06-11T01:44:15.768Z,17.5
2016-06-11T01:44:26.815Z,17.4
2016-06-11T01:44:36.878Z,17.4
2016-06-11T01:44:45.784Z,17.3
2016-06-11T01:44:56.112Z,17.2
2016-06-11T01:45:06.206Z,17.3
2016-06-11T01:45:15.801Z,17.3
2016-06-11T01:45:25.739Z,17.3
2016-06-11T01:45:35.770Z,17.4
2016-06-11T01:45:45.739Z,17.3
2016-06-11T01:45:56.083Z,17.4
2016-06-11T01:46:05.739Z,17.3
2016-06-11T01:46:15.743Z,17.4
2016-06-11T01:46:25.743Z,17.2
2016-06-11T01:46:35.727Z,17.3
2016-06-11T01:46:45.727Z,17.3
2016-06-11T01:46:55.727Z,17.2
2016-06-11T01:47:05.727Z,17.3
2016-06-11T01:47:15.714Z,17.2
2016-06-11T01:47:25.745Z,17.4
2016-06-11T01:47:35.729Z,17.4
2016-06-11T01:47:45.714Z,17.4
2016-06-11T01:47:55.698Z,17.4
2016-06-11T01:48:05.714Z,17.5
2016-06-11T01:48:15.701Z,17.5
2016-06-11T01:48:25.701Z,17.5
2016-06-11T01:48:35.560Z,17.5
2016-06-11T01:48:45.701Z,17.4
2016-06-11T01:48:55.685Z,17.5
2016-06-11T01:49:05.701Z,17.4
2016-06-11T01:49:15.705Z,17.3
2016-06-11T01:49:25.705Z,17.3
2016-06-11T01:49:35.549Z,17.2
2016-06-11T01:49:45.674Z,17.3
2016-06-11T01:49:55.689Z,17.3
2016-06-11T01:50:05.674Z,17.2
2016-06-11T01:50:15.708Z,17.3
2016-06-11T01:50:25.677Z,17.3
2016-06-11T01:50:35.677Z,17.4
2016-06-11T01:50:45.661Z,17.4
2016-06-11T01:50:55.661Z,17.4
2016-06-11T01:51:05.677Z,17.4
2016-06-11T01:51:15.663Z,17.3
2016-06-11T01:51:25.663Z,17.3
2016-06-11T01:51:35.663Z,17.5
2016-06-11T01:51:45.648Z,17.4
2016-06-11T01:51:55.648Z,17.5
2016-06-11T01:52:05.679Z,17.4
2016-06-11T01:52:15.495Z,17.4
2016-06-11T01:52:25.652Z,17.4
2016-06-11T01:52:35.652Z,17.3
2016-06-11T01:52:45.511Z,17.3
2016-06-11T01:52:55.620Z,17.4
2016-06-11T01:53:05.636Z,17.4
2016-06-11T01:53:15.623Z,17.4
2016-06-11T01:53:25.623Z,17.3
2016-06-11T01:53:35.623Z,17.3
2016-06-11T01:53:45.608Z,17.3
2016-06-11T01:53:55.608Z,17.3
2016-06-11T01:54:05.608Z,17.3
2016-06-11T01:54:15.486Z,17.2
2016-06-11T01:54:25.611Z,17.2
2016-06-11T01:54:35.595Z,17.2
2016-06-11T01:54:45.611Z,17.3
2016-06-11T01:54:55.595Z,17.3
2016-06-11T01:55:05.595Z,17.3
2016-06-11T01:55:15.629Z,17.3
2016-06-11T01:55:25.614Z,17.3
2016-06-11T01:55:35.598Z,17.4
2016-06-11T01:55:45.582Z,17.3
2016-06-11T01:55:55.582Z,17.4
2016-06-11T01:56:05.598Z,17.4
2016-06-11T01:56:15.601Z,17.3
2016-06-11T01:56:25.601Z,17.5
2016-06-11T01:56:35.601Z,17.3
2016-06-11T01:56:45.570Z,17.4
2016-06-11T01:56:55.585Z,17.4
2016-06-11T01:57:05.585Z,17.3
2016-06-11T01:57:15.573Z,17.4
2016-06-11T01:57:25.557Z,17.4
2016-06-11T01:57:35.557Z,17.5
2016-06-11T01:57:45.542Z,17.5
2016-06-11T01:57:54.526Z,17.5
2016-06-11T01:58:05.542Z,17.4
2016-06-11T01:58:15.545Z,17.5
2016-06-11T01:58:25.545Z,17.5
2016-06-11T01:58:35.670Z,17.4
2016-06-11T01:58:45.529Z,17.4
2016-06-11T01:58:55.545Z,17.5
2016-06-11T01:59:06.201Z,17.3
2016-06-11T01:59:15.469Z,17.3
2016-06-11T01:59:25.735Z,17.2
2016-06-11T01:59:35.719Z,17.4
2016-06-11T01:59:45.376Z,17.4
2016-06-11T01:59:56.844Z,17.2
2016-06-11T02:00:05.610Z,17.4
2016-06-11T02:00:15.567Z,17.4
2016-06-11T02:00:25.536Z,17.5
2016-06-11T02:00:35.364Z,17.4
2016-06-11T02:00:45.505Z,17.4
2016-06-11T02:00:55.520Z,17.4
2016-06-11T02:01:05.505Z,17.4
2016-06-11T02:01:15.538Z,17.5
2016-06-11T02:01:25.491Z,17.4
2016-06-11T02:01:35.491Z,17.4
2016-06-11T02:01:45.507Z,17.5
2016-06-11T02:01:55.522Z,17.4
2016-06-11T02:02:05.491Z,17.5
2016-06-11T02:02:15.479Z,17.5
2016-06-11T02:02:25.479Z,17.5
2016-06-11T02:02:35.573Z,17.5
2016-06-11T02:02:45.495Z,17.5
2016-06-11T02:02:55.464Z,17.5
2016-06-11T02:03:05.479Z,17.4
2016-06-11T02:03:15.514Z,17.5
2016-06-11T02:03:25.482Z,17.4
2016-06-11T02:03:35.482Z,17.5
2016-06-11T02:03:45.482Z,17.5
2016-06-11T02:03:55.701Z,17.5
2016-06-11T02:04:05.451Z,17.5
2016-06-11T02:04:15.470Z,17.5
2016-06-11T02:04:25.454Z,17.5
2016-06-11T02:04:35.517Z,17.5
2016-06-11T02:04:45.298Z,17.5
2016-06-11T02:04:55.439Z,17.5
2016-06-11T02:05:05.439Z,17.5
2016-06-11T02:05:15.504Z,17.5
2016-06-11T02:05:25.426Z,17.5
2016-06-11T02:05:35.285Z,17.4
2016-06-11T02:05:45.426Z,17.4
2016-06-11T02:05:55.520Z,17.4
2016-06-11T02:06:05.410Z,17.4
2016-06-11T02:06:15.429Z,17.4
2016-06-11T02:06:25.413Z,17.4
2016-06-11T02:06:35.429Z,17.4
2016-06-11T02:06:45.445Z,17.3
2016-06-11T02:06:55.413Z,17.2
2016-06-11T02:07:05.413Z,17.3
2016-06-11T02:07:15.463Z,17.3
2016-06-11T02:07:25.401Z,17.4
2016-06-11T02:07:35.416Z,17.4
2016-06-11T02:07:45.448Z,17.4
2016-06-11T02:07:55.416Z,17.4
2016-06-11T02:08:05.385Z,17.5
2016-06-11T02:08:15.404Z,17.5
2016-06-11T02:08:25.388Z,17.4
2016-06-11T02:08:35.388Z,17.5
2016-06-11T02:08:45.404Z,17.4
2016-06-11T02:08:55.372Z,17.4
2016-06-11T02:09:05.372Z,17.5
2016-06-11T02:09:15.267Z,17.3
2016-06-11T02:09:25.361Z,17.4
2016-06-11T02:09:35.376Z,17.4
2016-06-11T02:09:45.408Z,17.5
2016-06-11T02:09:55.392Z,17.4
2016-06-11T02:10:05.361Z,17.5
2016-06-11T02:10:15.364Z,17.5
2016-06-11T02:10:25.364Z,17.5
2016-06-11T02:10:35.379Z,17.4
2016-06-11T02:10:45.364Z,17.4
2016-06-11T02:10:55.348Z,17.4
2016-06-11T02:11:05.364Z,17.4
2016-06-11T02:11:15.350Z,17.3
2016-06-11T02:11:25.335Z,17.4
2016-06-11T02:11:35.335Z,17.3
2016-06-11T02:11:45.335Z,17.4
2016-06-11T02:11:55.335Z,17.4
2016-06-11T02:12:05.335Z,17.4
2016-06-11T02:12:15.339Z,17.4
2016-06-11T02:12:25.323Z,17.4
2016-06-11T02:12:35.229Z,17.4
2016-06-11T02:12:45.323Z,17.4
2016-06-11T02:12:55.182Z,17.3
2016-06-11T02:13:05.307Z,17.3
2016-06-11T02:13:15.342Z,17.4
2016-06-11T02:13:25.326Z,17.2
2016-06-11T02:13:35.295Z,17.2
2016-06-11T02:13:45.295Z,17.3
2016-06-11T02:13:55.326Z,17.2